createdAt,value
2023-02-13T00:00:31.057Z,0
2023-02-13T00:01:31.390Z,0
2023-02-13T00:02:32.103Z,0
2023-02-13T00:03:33.698Z,0
2023-02-13T00:04:33.623Z,0
2023-02-13T00:05:34.069Z,0
2023-02-13T00:06:33.985Z,0
2023-02-13T00:07:35.507Z,0
2023-02-13T00:08:35.459Z,0
2023-02-13T00:09:36.088Z,0
2023-02-13T00:10:37.026Z,0
2023-02-13T00:11:37.667Z,0
2023-02-13T00:12:38.933Z,0
2023-02-13T00:13:38.879Z,0
2023-02-13T00:14:40.120Z,0
2023-02-13T00:15:40.102Z,0
2023-02-13T00:16:41.031Z,0
2023-02-13T00:17:41.660Z,0
2023-02-13T00:18:41.526Z,0
2023-02-13T00:19:43.004Z,0
2023-02-13T00:20:43.494Z,0
2023-02-13T00:21:43.399Z,0
2023-02-13T00:22:44.610Z,0
2023-02-13T00:23:45.001Z,0
2023-02-13T00:24:44.616Z,0
2023-02-13T00:25:46.015Z,0
2023-02-13T00:26:46.996Z,0
2023-02-13T00:27:47.297Z,0
2023-02-13T00:28:47.629Z,0
2023-02-13T00:29:48.109Z,0
2023-02-13T00:30:48.415Z,0
2023-02-13T00:31:49.467Z,0
2023-02-13T00:32:49.015Z,0
2023-02-13T00:33:49.620Z,0
2023-02-13T00:34:49.853Z,0
2023-02-13T00:35:49.846Z,0
2023-02-13T00:36:51.064Z,0
2023-02-13T00:37:50.981Z,0
2023-02-13T00:38:51.634Z,0
2023-02-13T00:39:52.293Z,0
2023-02-13T00:40:53.487Z,0
2023-02-13T00:41:53.125Z,0
2023-02-13T00:42:54.419Z,0
2023-02-13T00:43:54.676Z,0
2023-02-13T00:44:55.178Z,0
2023-02-13T00:45:55.520Z,0
2023-02-13T00:46:55.281Z,0
2023-02-13T00:47:56.181Z,0
2023-02-13T00:48:56.864Z,0
2023-02-13T00:49:57.780Z,0
2023-02-13T00:50:58.576Z,0
2023-02-13T00:51:58.057Z,0
2023-02-13T00:52:58.972Z,0
2023-02-13T00:53:59.913Z,0
2023-02-13T00:55:00.141Z,0
2023-02-13T00:56:01.195Z,0
2023-02-13T00:57:01.397Z,0
2023-02-13T00:58:01.402Z,0
2023-02-13T00:59:03.011Z,0
2023-02-13T01:00:03.317Z,0
2023-02-13T01:01:04.070Z,0
2023-02-13T01:02:04.304Z,0
2023-02-13T01:03:04.659Z,0
2023-02-13T01:04:06.261Z,0
2023-02-13T01:05:05.659Z,0
2023-02-13T01:06:06.735Z,0
2023-02-13T01:07:07.397Z,0
2023-02-13T01:08:08.611Z,0
2023-02-13T01:09:08.821Z,0
2023-02-13T01:10:09.032Z,0
2023-02-13T01:11:10.394Z,0
2023-02-13T01:12:09.884Z,0
2023-02-13T01:13:09.902Z,0
2023-02-13T01:14:10.192Z,0
2023-02-13T01:15:10.100Z,0
2023-02-13T01:16:12.029Z,0
2023-02-13T01:17:12.271Z,0
2023-02-13T01:18:12.587Z,0
2023-02-13T01:19:12.539Z,0
2023-02-13T01:20:13.211Z,0
2023-02-13T01:21:14.952Z,0
2023-02-13T01:22:14.875Z,0
2023-02-13T01:23:15.715Z,0
2023-02-13T01:24:16.636Z,0
2023-02-13T01:25:17.561Z,0
2023-02-13T01:26:19.194Z,0
2023-02-13T01:27:18.868Z,0
2023-02-13T01:28:20.706Z,0
2023-02-13T01:29:20.995Z,0
2023-02-13T01:30:21.223Z,0
2023-02-13T01:31:22.320Z,0
2023-02-13T01:32:22.028Z,0
2023-02-13T01:33:22.223Z,0
2023-02-13T01:34:22.710Z,0
2023-02-13T01:35:22.936Z,0
2023-02-13T01:36:23.678Z,0
2023-02-13T01:37:24.615Z,0
2023-02-13T01:38:24.812Z,0
2023-02-13T01:39:25.357Z,0
2023-02-13T01:40:25.556Z,0
2023-02-13T01:41:26.921Z,0
2023-02-13T01:42:26.856Z,0
2023-02-13T01:43:28.141Z,0
2023-02-13T01:44:28.380Z,0
2023-02-13T01:45:28.333Z,0
2023-02-13T01:46:29.858Z,0
2023-02-13T01:47:30.083Z,0
2023-02-13T01:48:32.159Z,0
2023-02-13T01:49:30.304Z,0
2023-02-13T01:50:31.265Z,0
2023-02-13T01:51:32.463Z,0
2023-02-13T01:52:32.806Z,0
2023-02-13T01:53:33.722Z,0
2023-02-13T01:54:34.667Z,0
2023-02-13T01:55:35.662Z,0
2023-02-13T01:56:36.376Z,0
2023-02-13T01:57:37.585Z,0
2023-02-13T01:58:38.057Z,0
2023-02-13T01:59:38.036Z,0
2023-02-13T02:00:39.291Z,0
2023-02-13T02:01:40.120Z,0
2023-02-13T02:02:40.753Z,0
2023-02-13T02:03:40.725Z,0
2023-02-13T02:04:41.932Z,0
2023-02-13T02:05:42.423Z,0
2023-02-13T02:06:41.999Z,0
2023-02-13T02:07:43.197Z,0
2023-02-13T02:08:43.385Z,0
2023-02-13T02:09:43.584Z,0
2023-02-13T02:10:44.508Z,0
2023-02-13T02:11:44.698Z,0
2023-02-13T02:12:45.084Z,0
2023-02-13T02:13:45.551Z,0
2023-02-13T02:14:46.091Z,0
2023-02-13T02:15:46.695Z,0
2023-02-13T02:16:46.812Z,0
2023-02-13T02:17:47.011Z,0
2023-02-13T02:18:47.643Z,0
2023-02-13T02:19:48.573Z,0
2023-02-13T02:20:49.490Z,0
2023-02-13T02:21:50.708Z,0
2023-02-13T02:22:50.637Z,0
2023-02-13T02:23:51.477Z,0
2023-02-13T02:24:52.423Z,0
2023-02-13T02:25:53.371Z,0
2023-02-13T02:26:54.430Z,0
2023-02-13T02:27:55.045Z,0
2023-02-13T02:28:56.336Z,0
2023-02-13T02:29:56.891Z,0
2023-02-13T02:30:57.401Z,0
2023-02-13T02:31:57.413Z,0
2023-02-13T02:32:57.611Z,0
2023-02-13T02:33:57.522Z,0
2023-02-13T02:34:59.002Z,0
2023-02-13T02:35:59.228Z,0
2023-02-13T02:36:59.525Z,0
2023-02-13T02:38:00.041Z,0
2023-02-13T02:38:59.948Z,0
2023-02-13T02:40:00.864Z,0
2023-02-13T02:41:01.803Z,0
2023-02-13T02:42:02.020Z,0
2023-02-13T02:43:02.516Z,0
2023-02-13T02:44:03.175Z,0
2023-02-13T02:45:03.434Z,0
2023-02-13T02:46:03.928Z,0
2023-02-13T02:47:03.604Z,0
2023-02-13T02:48:04.553Z,0
2023-02-13T02:49:04.449Z,0
2023-02-13T02:50:05.116Z,0
2023-02-13T02:51:06.414Z,0
2023-02-13T02:52:06.361Z,0
2023-02-13T02:53:06.999Z,0
2023-02-13T02:54:08.221Z,0
2023-02-13T02:55:08.686Z,0
2023-02-13T02:56:09.182Z,0
2023-02-13T02:57:09.772Z,0
2023-02-13T02:58:09.672Z,0
2023-02-13T02:59:11.445Z,0
2023-02-13T03:00:12.060Z,0
2023-02-13T03:01:13.166Z,0
2023-02-13T03:02:12.080Z,0
2023-02-13T03:03:13.330Z,0
2023-02-13T03:04:13.359Z,0
2023-02-13T03:05:13.999Z,0
2023-02-13T03:06:14.649Z,0
2023-02-13T03:07:15.694Z,0
2023-02-13T03:08:16.310Z,0
2023-02-13T03:09:17.258Z,0
2023-02-13T03:10:18.178Z,0
2023-02-13T03:11:18.096Z,0
2023-02-13T03:12:19.638Z,0
2023-02-13T03:13:19.268Z,0
2023-02-13T03:14:20.280Z,0
2023-02-13T03:15:20.287Z,0
2023-02-13T03:16:22.021Z,0
2023-02-13T03:17:21.505Z,0
2023-02-13T03:18:21.876Z,0
2023-02-13T03:19:23.367Z,0
2023-02-13T03:20:23.857Z,0
2023-02-13T03:21:24.075Z,0
2023-02-13T03:22:24.408Z,0
2023-02-13T03:23:25.033Z,0
2023-02-13T03:24:26.246Z,0
2023-02-13T03:25:26.155Z,0
2023-02-13T03:26:26.891Z,0
2023-02-13T03:27:27.233Z,0
2023-02-13T03:28:29.847Z,0
2023-02-13T03:29:29.155Z,0
2023-02-13T03:30:29.833Z,0
2023-02-13T03:31:30.361Z,0
2023-02-13T03:32:30.294Z,0
2023-02-13T03:33:30.980Z,0
2023-02-13T03:34:31.929Z,0
2023-02-13T03:35:32.122Z,0
2023-02-13T03:36:32.032Z,0
2023-02-13T03:37:32.474Z,0
2023-02-13T03:38:33.690Z,0
2023-02-13T03:39:34.175Z,0
2023-02-13T03:40:34.084Z,0
2023-02-13T03:41:35.285Z,0
2023-02-13T03:42:35.368Z,0
2023-02-13T03:43:36.560Z,0
2023-02-13T03:44:36.825Z,0
2023-02-13T03:45:37.554Z,0
2023-02-13T03:46:37.199Z,0
2023-02-13T03:47:38.579Z,0
2023-02-13T03:48:38.792Z,0
2023-02-13T03:49:38.425Z,0
2023-02-13T03:50:39.371Z,0
2023-02-13T03:51:39.995Z,0
2023-02-13T03:52:41.005Z,0
2023-02-13T03:53:40.647Z,0
2023-02-13T03:54:41.566Z,0
2023-02-13T03:55:42.227Z,0
2023-02-13T03:56:43.429Z,0
2023-02-13T03:57:44.149Z,0
2023-02-13T03:58:44.352Z,0
2023-02-13T03:59:45.653Z,0
2023-02-13T04:00:46.056Z,0
2023-02-13T04:01:46.330Z,0
2023-02-13T04:02:46.157Z,0
2023-02-13T04:03:46.943Z,0
2023-02-13T04:04:47.866Z,0
2023-02-13T04:05:48.057Z,0
2023-02-13T04:06:48.264Z,0
2023-02-13T04:07:48.614Z,0
2023-02-13T04:08:49.855Z,0
2023-02-13T04:09:50.075Z,0
2023-02-13T04:10:49.988Z,0
2023-02-13T04:11:51.184Z,0
2023-02-13T04:12:51.492Z,0
2023-02-13T04:13:51.403Z,0
2023-02-13T04:14:53.154Z,0
2023-02-13T04:15:53.685Z,0
2023-02-13T04:16:53.342Z,0
2023-02-13T04:17:54.087Z,0
2023-02-13T04:18:55.009Z,0
2023-02-13T04:19:55.830Z,0
2023-02-13T04:20:56.593Z,0
2023-02-13T04:21:56.358Z,0
2023-02-13T04:22:57.560Z,0
2023-02-13T04:23:58.483Z,0
2023-02-13T04:24:59.085Z,0
2023-02-13T04:25:58.718Z,0
2023-02-13T04:26:59.063Z,0
2023-02-13T04:28:00.447Z,0
2023-02-13T04:29:01.658Z,0
2023-02-13T04:30:02.228Z,0
2023-02-13T04:31:03.760Z,0
2023-02-13T04:32:03.938Z,0
2023-02-13T04:33:03.170Z,0
2023-02-13T04:34:03.392Z,0
2023-02-13T04:35:04.022Z,0
2023-02-13T04:36:05.548Z,0
2023-02-13T04:37:05.201Z,0
2023-02-13T04:38:06.461Z,0
2023-02-13T04:39:07.320Z,0
2023-02-13T04:40:07.527Z,0
2023-02-13T04:41:08.320Z,0
2023-02-13T04:42:08.583Z,0
2023-02-13T04:43:09.104Z,0
2023-02-13T04:44:09.029Z,0
2023-02-13T04:45:10.344Z,0
2023-02-13T04:46:10.814Z,0
2023-02-13T04:47:11.219Z,0
2023-02-13T04:48:11.572Z,0
2023-02-13T04:49:12.510Z,0
2023-02-13T04:50:11.889Z,0
2023-02-13T04:51:13.862Z,0
2023-02-13T04:52:14.358Z,0
2023-02-13T04:53:14.578Z,0
2023-02-13T04:54:14.218Z,0
2023-02-13T04:55:15.437Z,0
2023-02-13T04:56:18.024Z,0
2023-02-13T04:57:16.560Z,0
2023-02-13T04:58:17.962Z,0
2023-02-13T04:59:17.605Z,0
2023-02-13T05:00:18.674Z,0
2023-02-13T05:01:19.302Z,0
2023-02-13T05:02:18.814Z,0
2023-02-13T05:03:20.108Z,0
2023-02-13T05:04:20.135Z,0
2023-02-13T05:05:21.359Z,0
2023-02-13T05:06:21.657Z,0
2023-02-13T05:07:22.339Z,0
2023-02-13T05:08:23.678Z,0
2023-02-13T05:09:23.608Z,0
2023-02-13T05:10:23.253Z,0
2023-02-13T05:11:24.180Z,0
2023-02-13T05:12:26.123Z,0
2023-02-13T05:13:25.214Z,0
2023-02-13T05:14:26.701Z,0
2023-02-13T05:15:27.307Z,0
2023-02-13T05:16:27.839Z,0
2023-02-13T05:17:28.474Z,0
2023-02-13T05:18:27.936Z,0
2023-02-13T05:19:29.205Z,0
2023-02-13T05:20:28.864Z,0
2023-02-13T05:21:29.773Z,0
2023-02-13T05:22:30.392Z,0
2023-02-13T05:23:31.658Z,0
2023-02-13T05:24:31.928Z,0
2023-02-13T05:25:32.941Z,0
2023-02-13T05:26:33.146Z,0
2023-02-13T05:27:33.356Z,0
2023-02-13T05:28:33.476Z,0
2023-02-13T05:29:34.435Z,0
2023-02-13T05:30:35.720Z,0
2023-02-13T05:31:36.676Z,0
2023-02-13T05:32:37.344Z,0
2023-02-13T05:33:37.310Z,0
2023-02-13T05:34:37.641Z,0
2023-02-13T05:35:38.559Z,0
2023-02-13T05:36:39.196Z,0
2023-02-13T05:37:40.684Z,0
2023-02-13T05:38:40.697Z,0
2023-02-13T05:39:41.345Z,0
2023-02-13T05:40:42.542Z,0
2023-02-13T05:41:42.890Z,0
2023-02-13T05:42:44.091Z,0
2023-02-13T05:43:45.330Z,0
2023-02-13T05:44:45.565Z,0
2023-02-13T05:45:46.871Z,0
2023-02-13T05:46:47.414Z,0
2023-02-13T05:47:47.353Z,0
2023-02-13T05:48:48.021Z,0
2023-02-13T05:49:47.939Z,0
2023-02-13T05:50:48.173Z,0
2023-02-13T05:51:48.643Z,0
2023-02-13T05:52:47.704Z,0
2023-02-13T05:53:49.623Z,0
2023-02-13T05:54:49.840Z,0
2023-02-13T05:55:50.037Z,0
2023-02-13T05:56:50.262Z,0
2023-02-13T05:57:51.445Z,0
2023-02-13T05:58:50.637Z,0
2023-02-13T05:59:51.555Z,0
2023-02-13T06:00:53.043Z,0
2023-02-13T06:01:53.595Z,0
2023-02-13T06:02:54.593Z,0
2023-02-13T06:03:56.723Z,0
2023-02-13T06:04:55.932Z,0
2023-02-13T06:05:56.151Z,0
2023-02-13T06:06:56.795Z,0
2023-02-13T06:07:58.007Z,0
2023-02-13T06:08:58.504Z,0
2023-02-13T06:09:59.147Z,0
2023-02-13T06:11:02.016Z,0
2023-02-13T06:12:01.339Z,0
2023-02-13T06:13:01.250Z,0
2023-02-13T06:14:01.889Z,0
2023-02-13T06:15:02.818Z,0
2023-02-13T06:16:04.429Z,0
2023-02-13T06:17:04.724Z,0
2023-02-13T06:18:05.360Z,0
2023-02-13T06:19:06.419Z,0
2023-02-13T06:20:06.952Z,0
2023-02-13T06:21:07.327Z,0
2023-02-13T06:22:07.838Z,0
2023-02-13T06:23:07.760Z,0
2023-02-13T06:24:08.432Z,0
2023-02-13T06:25:09.631Z,0
2023-02-13T06:26:09.528Z,0
2023-02-13T06:27:10.447Z,0
2023-02-13T06:28:11.294Z,0
2023-02-13T06:29:12.393Z,0
2023-02-13T06:30:12.956Z,0
2023-02-13T06:31:14.694Z,0
2023-02-13T06:32:14.124Z,0
2023-02-13T06:33:15.039Z,0
2023-02-13T06:34:15.540Z,0
2023-02-13T06:35:17.161Z,0
2023-02-13T06:36:16.362Z,0
2023-02-13T06:37:17.328Z,0
2023-02-13T06:38:17.514Z,0
2023-02-13T06:39:18.562Z,0
2023-02-13T06:40:18.854Z,0
2023-02-13T06:41:19.901Z,0
2023-02-13T06:42:20.255Z,0
2023-02-13T06:43:21.460Z,0
2023-02-13T06:44:21.095Z,0
2023-02-13T06:45:22.575Z,5.63
2023-02-13T06:46:23.002Z,5.63
2023-02-13T06:47:23.284Z,5.63
2023-02-13T06:48:23.768Z,5.63
2023-02-13T06:49:23.564Z,5.63
2023-02-13T06:50:24.816Z,5.63
2023-02-13T06:51:25.789Z,5.63
2023-02-13T06:52:26.003Z,5.63
2023-02-13T06:53:26.937Z,5.63
2023-02-13T06:54:46.641Z,5.63
2023-02-13T06:55:28.152Z,5.63
2023-02-13T06:56:28.088Z,5.63
2023-02-13T06:57:29.294Z,11.25
2023-02-13T06:58:29.507Z,11.25
2023-02-13T06:59:30.498Z,11.25
2023-02-13T07:00:32.686Z,11.25
2023-02-13T07:01:32.713Z,11.25
2023-02-13T07:02:33.241Z,11.25
2023-02-13T07:03:33.460Z,11.25
2023-02-13T07:04:34.414Z,11.25
2023-02-13T07:05:35.090Z,11.25
2023-02-13T07:06:36.311Z,11.25
2023-02-13T07:07:35.679Z,11.25
2023-02-13T07:08:37.270Z,11.25
2023-02-13T07:09:37.641Z,16.88
2023-02-13T07:10:37.924Z,16.88
2023-02-13T07:11:37.830Z,16.88
2023-02-13T07:12:38.471Z,16.88
2023-02-13T07:13:39.680Z,16.88
2023-02-13T07:14:39.883Z,22.5
2023-02-13T07:15:40.009Z,22.5
2023-02-13T07:16:41.998Z,22.5
2023-02-13T07:17:42.553Z,22.5
2023-02-13T07:18:44.041Z,22.5
2023-02-13T07:19:43.037Z,22.5
2023-02-13T07:20:42.982Z,28.13
2023-02-13T07:21:44.532Z,33.75
2023-02-13T07:22:44.162Z,33.75
2023-02-13T07:23:45.391Z,33.75
2023-02-13T07:24:45.880Z,33.75
2023-02-13T07:25:45.239Z,39.38
2023-02-13T07:26:46.074Z,39.38
2023-02-13T07:27:47.887Z,39.38
2023-02-13T07:28:48.651Z,45
2023-02-13T07:29:47.635Z,50.63
2023-02-13T07:30:48.807Z,45
2023-02-13T07:31:49.664Z,45
2023-02-13T07:32:50.001Z,45
2023-02-13T07:33:49.931Z,39.38
2023-02-13T07:35:11.425Z,39.38
2023-02-13T07:35:51.078Z,39.38
2023-02-13T07:36:51.723Z,39.38
2023-02-13T07:37:52.932Z,45
2023-02-13T07:38:53.851Z,45
2023-02-13T07:39:55.157Z,39.38
2023-02-13T07:40:55.005Z,39.38
2023-02-13T07:41:55.201Z,39.38
2023-02-13T07:42:55.574Z,39.38
2023-02-13T07:43:56.488Z,45
2023-02-13T07:44:57.435Z,50.63
2023-02-13T07:45:58.667Z,56.25
2023-02-13T07:46:59.303Z,56.25
2023-02-13T07:47:59.602Z,56.25
2023-02-13T07:48:59.319Z,50.63
2023-02-13T07:50:00.479Z,50.63
2023-02-13T07:51:13.992Z,56.25
2023-02-13T07:52:02.189Z,56.25
2023-02-13T07:53:02.136Z,56.25
2023-02-13T07:54:02.991Z,56.25
2023-02-13T07:55:04.439Z,56.25
2023-02-13T07:56:05.010Z,56.25
2023-02-13T07:57:04.928Z,50.63
2023-02-13T07:58:06.152Z,56.25
2023-02-13T07:59:07.843Z,61.88
2023-02-13T08:00:07.076Z,61.88
2023-02-13T08:01:08.043Z,61.88
2023-02-13T08:02:08.957Z,61.88
2023-02-13T08:03:09.273Z,61.88
2023-02-13T08:04:09.543Z,56.25
2023-02-13T08:05:09.864Z,56.25
2023-02-13T08:06:10.649Z,56.25
2023-02-13T08:07:10.592Z,56.25
2023-02-13T08:08:11.811Z,56.25
2023-02-13T08:09:12.450Z,50.63
2023-02-13T08:10:13.838Z,50.63
2023-02-13T08:11:13.802Z,56.25
2023-02-13T08:12:15.303Z,56.25
2023-02-13T08:13:15.827Z,56.25
2023-02-13T08:14:16.331Z,56.25
2023-02-13T08:15:16.295Z,56.25
2023-02-13T08:16:17.314Z,56.25
2023-02-13T08:17:17.709Z,56.25
2023-02-13T08:18:19.669Z,56.25
2023-02-13T08:19:18.192Z,56.25
2023-02-13T08:20:18.357Z,56.25
2023-02-13T08:21:19.278Z,56.25
2023-02-13T08:22:20.490Z,56.25
2023-02-13T08:23:21.274Z,61.88
2023-02-13T08:24:21.537Z,61.88
2023-02-13T08:25:22.259Z,61.88
2023-02-13T08:26:23.606Z,61.88
2023-02-13T08:27:23.880Z,61.88
2023-02-13T08:28:24.767Z,61.88
2023-02-13T08:29:25.014Z,67.5
2023-02-13T08:30:25.402Z,67.5
2023-02-13T08:31:29.233Z,67.5
2023-02-13T08:32:27.123Z,67.5
2023-02-13T08:33:27.784Z,67.5
2023-02-13T08:34:27.522Z,67.5
2023-02-13T08:35:28.499Z,73.13
2023-02-13T08:36:29.462Z,73.13
2023-02-13T08:37:30.398Z,78.75
2023-02-13T08:38:30.316Z,78.75
2023-02-13T08:39:31.540Z,73.13
2023-02-13T08:40:35.068Z,67.5
2023-02-13T08:41:34.737Z,67.5
2023-02-13T08:42:33.433Z,67.5
2023-02-13T08:43:33.929Z,67.5
2023-02-13T08:44:34.596Z,73.13
2023-02-13T08:45:34.682Z,78.75
2023-02-13T08:46:35.406Z,78.75
2023-02-13T08:47:36.180Z,73.13
2023-02-13T08:48:36.720Z,78.75
2023-02-13T08:49:36.935Z,78.75
2023-02-13T08:50:37.415Z,78.75
2023-02-13T08:51:38.093Z,78.75
2023-02-13T08:52:38.591Z,78.75
2023-02-13T08:53:39.116Z,78.75
2023-02-13T08:54:39.381Z,78.75
2023-02-13T08:55:39.969Z,78.75
2023-02-13T08:56:39.934Z,78.75
2023-02-13T08:57:40.876Z,84.38
2023-02-13T08:58:41.093Z,84.38
2023-02-13T08:59:42.028Z,84.38
2023-02-13T09:00:42.851Z,84.38
2023-02-13T09:01:44.517Z,84.38
2023-02-13T09:02:45.122Z,84.38
2023-02-13T09:03:45.743Z,84.38
2023-02-13T09:04:45.971Z,84.38
2023-02-13T09:05:45.930Z,84.38
2023-02-13T09:06:47.263Z,90
2023-02-13T09:07:47.823Z,84.38
2023-02-13T09:08:48.326Z,84.38
2023-02-13T09:09:48.581Z,90
2023-02-13T09:10:48.362Z,95.63
2023-02-13T09:11:49.561Z,101.25
2023-02-13T09:12:49.501Z,106.88
2023-02-13T09:13:52.122Z,106.88
2023-02-13T09:14:51.349Z,118.13
2023-02-13T09:15:52.571Z,123.75
2023-02-13T09:16:52.244Z,123.75
2023-02-13T09:17:54.073Z,123.75
2023-02-13T09:18:54.613Z,118.13
2023-02-13T09:19:55.099Z,112.5
2023-02-13T09:20:55.257Z,106.88
2023-02-13T09:21:56.189Z,112.5
2023-02-13T09:22:57.748Z,123.75
2023-02-13T09:23:57.676Z,123.75
2023-02-13T09:24:58.596Z,123.75
2023-02-13T09:25:59.749Z,118.13
2023-02-13T09:27:00.384Z,106.88
2023-02-13T09:28:00.664Z,106.88
2023-02-13T09:29:01.535Z,118.13
2023-02-13T09:30:02.778Z,123.75
2023-02-13T09:31:04.441Z,123.75
2023-02-13T09:32:05.033Z,129.38
2023-02-13T09:33:04.715Z,140.63
2023-02-13T09:34:05.273Z,146.25
2023-02-13T09:35:05.621Z,146.25
2023-02-13T09:36:05.768Z,140.63
2023-02-13T09:37:05.473Z,140.63
2023-02-13T09:38:06.700Z,140.63
2023-02-13T09:39:06.694Z,146.25
2023-02-13T09:40:07.225Z,146.25
2023-02-13T09:41:07.544Z,146.25
2023-02-13T09:42:07.936Z,140.63
2023-02-13T09:43:07.330Z,140.63
2023-02-13T09:44:08.280Z,146.25
2023-02-13T09:45:08.290Z,168.75
2023-02-13T09:46:10.849Z,191.25
2023-02-13T09:47:09.788Z,196.88
2023-02-13T09:48:10.970Z,185.63
2023-02-13T09:49:10.933Z,174.38
2023-02-13T09:50:11.913Z,163.13
2023-02-13T09:51:12.877Z,174.38
2023-02-13T09:52:13.103Z,185.63
2023-02-13T09:53:13.029Z,196.88
2023-02-13T09:54:14.591Z,202.5
2023-02-13T09:55:14.528Z,219.38
2023-02-13T09:56:15.483Z,213.75
2023-02-13T09:57:15.739Z,208.13
2023-02-13T09:58:15.962Z,196.88
2023-02-13T09:59:16.465Z,196.88
2023-02-13T10:00:16.410Z,208.13
2023-02-13T10:01:17.343Z,247.5
2023-02-13T10:02:18.615Z,348.75
2023-02-13T10:03:18.381Z,405
2023-02-13T10:04:19.664Z,405
2023-02-13T10:05:20.160Z,399.38
2023-02-13T10:06:20.201Z,360
2023-02-13T10:07:20.702Z,303.75
2023-02-13T10:08:20.921Z,258.75
2023-02-13T10:09:21.705Z,258.75
2023-02-13T10:10:22.437Z,292.5
2023-02-13T10:11:22.440Z,303.75
2023-02-13T10:12:23.665Z,281.25
2023-02-13T10:13:23.758Z,281.25
2023-02-13T10:14:24.468Z,270
2023-02-13T10:15:25.522Z,258.75
2023-02-13T10:16:26.975Z,258.75
2023-02-13T10:17:26.944Z,275.63
2023-02-13T10:18:28.218Z,275.63
2023-02-13T10:19:28.782Z,270
2023-02-13T10:20:29.007Z,281.25
2023-02-13T10:21:29.767Z,292.5
2023-02-13T10:22:30.698Z,326.25
2023-02-13T10:23:31.639Z,365.63
2023-02-13T10:24:32.848Z,433.13
2023-02-13T10:25:33.079Z,416.25
2023-02-13T10:26:35.896Z,433.13
2023-02-13T10:27:33.955Z,534.38
2023-02-13T10:28:35.140Z,579.38
2023-02-13T10:29:35.425Z,652.5
2023-02-13T10:30:35.453Z,388.13
2023-02-13T10:31:39.932Z,348.75
2023-02-13T10:32:38.089Z,320.63
2023-02-13T10:33:37.852Z,337.5
2023-02-13T10:34:39.408Z,354.38
2023-02-13T10:35:39.394Z,433.13
2023-02-13T10:36:40.650Z,652.5
2023-02-13T10:37:41.644Z,444.38
2023-02-13T10:38:41.676Z,658.13
2023-02-13T10:39:43.234Z,618.75
2023-02-13T10:40:43.181Z,568.13
2023-02-13T10:41:43.651Z,506.25
2023-02-13T10:42:47.552Z,455.63
2023-02-13T10:43:44.752Z,540
2023-02-13T10:44:45.982Z,528.75
2023-02-13T10:45:45.346Z,866.25
2023-02-13T10:46:46.864Z,675
2023-02-13T10:47:47.090Z,551.25
2023-02-13T10:48:48.339Z,579.38
2023-02-13T10:49:48.658Z,691.88
2023-02-13T10:50:49.192Z,1029.38
2023-02-13T10:51:49.574Z,1001.25
2023-02-13T10:52:49.221Z,995.63
2023-02-13T10:53:50.735Z,787.5
2023-02-13T10:54:50.713Z,1215
2023-02-13T10:55:52.014Z,950.63
2023-02-13T10:56:52.579Z,900
2023-02-13T10:57:52.891Z,1338.75
2023-02-13T10:58:53.169Z,1018.13
2023-02-13T10:59:53.137Z,1636.88
2023-02-13T11:00:54.524Z,1580.63
2023-02-13T11:01:55.626Z,1074.38
2023-02-13T11:02:55.421Z,1417.5
2023-02-13T11:03:57.297Z,1265.63
2023-02-13T11:04:57.926Z,1361.25
2023-02-13T11:05:57.843Z,1586.25
2023-02-13T11:06:58.711Z,1203.75
2023-02-13T11:08:00.405Z,1220.63
2023-02-13T11:09:00.137Z,1541.25
2023-02-13T11:10:01.479Z,1125
2023-02-13T11:11:01.153Z,1451.25
2023-02-13T11:12:03.013Z,1344.38
2023-02-13T11:13:03.360Z,1254.38
2023-02-13T11:14:03.319Z,1035
2023-02-13T11:15:03.998Z,556.88
2023-02-13T11:16:06.325Z,596.25
2023-02-13T11:17:04.878Z,1136.25
2023-02-13T11:18:05.817Z,1282.5
2023-02-13T11:19:06.164Z,1147.5
2023-02-13T11:20:06.487Z,1243.13
2023-02-13T11:21:06.445Z,1119.38
2023-02-13T11:22:08.042Z,1091.25
2023-02-13T11:23:08.253Z,950.63
2023-02-13T11:24:07.625Z,748.13
2023-02-13T11:25:09.666Z,601.88
2023-02-13T11:26:10.651Z,596.25
2023-02-13T11:27:11.012Z,731.25
2023-02-13T11:28:11.232Z,821.25
2023-02-13T11:29:11.584Z,652.5
2023-02-13T11:30:12.269Z,478.13
2023-02-13T11:31:14.482Z,686.25
2023-02-13T11:32:15.335Z,534.38
2023-02-13T11:33:14.640Z,736.88
2023-02-13T11:34:15.938Z,545.63
2023-02-13T11:35:15.476Z,371.25
2023-02-13T11:36:16.160Z,551.25
2023-02-13T11:37:16.376Z,669.38
2023-02-13T11:38:16.620Z,427.5
2023-02-13T11:39:16.585Z,500.63
2023-02-13T11:40:17.796Z,961.88
2023-02-13T11:41:17.741Z,1040.63
2023-02-13T11:42:18.731Z,1141.88
2023-02-13T11:43:20.028Z,1074.38
2023-02-13T11:44:20.045Z,1113.75
2023-02-13T11:45:21.313Z,1080
2023-02-13T11:46:22.648Z,630
2023-02-13T11:47:22.269Z,894.38
2023-02-13T11:48:22.526Z,1170
2023-02-13T11:49:22.974Z,495
2023-02-13T11:50:23.370Z,219.38
2023-02-13T11:51:23.319Z,483.75
2023-02-13T11:52:23.536Z,826.88
2023-02-13T11:53:24.758Z,720
2023-02-13T11:54:24.691Z,601.88
2023-02-13T11:55:25.334Z,680.63
2023-02-13T11:56:26.852Z,888.75
2023-02-13T11:57:27.256Z,641.25
2023-02-13T11:58:27.842Z,320.63
2023-02-13T11:59:28.098Z,455.63
2023-02-13T12:00:29.875Z,736.88
2023-02-13T12:01:28.629Z,815.63
2023-02-13T12:02:29.928Z,787.5
2023-02-13T12:03:30.866Z,748.13
2023-02-13T12:04:30.505Z,652.5
2023-02-13T12:05:31.075Z,562.5
2023-02-13T12:06:31.383Z,455.63
2023-02-13T12:07:31.319Z,331.88
2023-02-13T12:08:32.833Z,466.88
2023-02-13T12:09:32.806Z,742.5
2023-02-13T12:10:34.366Z,911.25
2023-02-13T12:11:34.910Z,843.75
2023-02-13T12:12:35.598Z,776.25
2023-02-13T12:13:36.134Z,607.5
2023-02-13T12:14:36.333Z,691.88
2023-02-13T12:15:37.009Z,793.13
2023-02-13T12:16:37.808Z,742.5
2023-02-13T12:17:47.484Z,601.88
2023-02-13T12:18:41.588Z,506.25
2023-02-13T12:19:39.204Z,714.38
2023-02-13T12:20:39.782Z,984.38
2023-02-13T12:21:39.752Z,973.13
2023-02-13T12:22:40.791Z,928.13
2023-02-13T12:23:40.953Z,928.13
2023-02-13T12:24:40.944Z,950.63
2023-02-13T12:25:42.725Z,894.38
2023-02-13T12:26:42.418Z,793.13
2023-02-13T12:27:43.346Z,517.5
2023-02-13T12:28:43.482Z,523.13
2023-02-13T12:29:47.193Z,646.88
2023-02-13T12:30:45.567Z,568.13
2023-02-13T12:31:45.931Z,461.25
2023-02-13T12:32:46.570Z,348.75
2023-02-13T12:33:46.785Z,382.5
2023-02-13T12:34:47.382Z,450
2023-02-13T12:35:47.649Z,416.25
2023-02-13T12:36:47.583Z,371.25
2023-02-13T12:37:48.516Z,393.75
2023-02-13T12:38:49.433Z,528.75
2023-02-13T12:39:50.953Z,607.5
2023-02-13T12:40:51.462Z,630
2023-02-13T12:41:50.821Z,590.63
2023-02-13T12:42:51.825Z,551.25
2023-02-13T12:43:53.365Z,534.38
2023-02-13T12:44:53.595Z,478.13
2023-02-13T12:45:53.743Z,399.38
2023-02-13T12:46:55.988Z,365.63
2023-02-13T12:47:53.912Z,303.75
2023-02-13T12:48:54.581Z,303.75
2023-02-13T12:49:55.918Z,478.13
2023-02-13T12:50:56.810Z,579.38
2023-02-13T12:51:56.874Z,635.63
2023-02-13T12:52:57.961Z,663.75
2023-02-13T12:53:58.932Z,573.75
2023-02-13T12:54:59.857Z,506.25
2023-02-13T12:56:01.216Z,483.75
2023-02-13T12:57:00.873Z,466.88
2023-02-13T12:58:02.099Z,433.13
2023-02-13T12:59:02.768Z,444.38
2023-02-13T13:00:03.711Z,461.25
2023-02-13T13:01:05.940Z,444.38
2023-02-13T13:02:06.047Z,461.25
2023-02-13T13:03:07.115Z,433.13
2023-02-13T13:04:07.099Z,376.88
2023-02-13T13:05:08.417Z,326.25
2023-02-13T13:06:26.107Z,343.13
2023-02-13T13:07:09.695Z,337.5
2023-02-13T13:08:09.391Z,331.88
2023-02-13T13:09:10.628Z,292.5
2023-02-13T13:10:11.218Z,241.88
2023-02-13T13:11:11.956Z,247.5
2023-02-13T13:12:12.202Z,270
2023-02-13T13:13:12.641Z,264.38
2023-02-13T13:14:13.147Z,281.25
2023-02-13T13:15:12.821Z,331.88
2023-02-13T13:16:15.856Z,360
2023-02-13T13:17:14.908Z,376.88
2023-02-13T13:18:14.866Z,371.25
2023-02-13T13:19:15.785Z,348.75
2023-02-13T13:20:17.434Z,315
2023-02-13T13:21:17.933Z,315
2023-02-13T13:22:18.497Z,331.88
2023-02-13T13:23:17.938Z,320.63
2023-02-13T13:24:18.701Z,309.38
2023-02-13T13:25:20.221Z,326.25
2023-02-13T13:26:20.156Z,320.63
2023-02-13T13:27:20.369Z,309.38
2023-02-13T13:28:20.313Z,303.75
2023-02-13T13:29:21.310Z,303.75
2023-02-13T13:30:23.708Z,315
2023-02-13T13:31:23.776Z,320.63
2023-02-13T13:32:24.180Z,320.63
2023-02-13T13:33:24.933Z,315
2023-02-13T13:34:25.181Z,309.38
2023-02-13T13:35:25.491Z,275.63
2023-02-13T13:36:25.742Z,275.63
2023-02-13T13:37:28.384Z,275.63
2023-02-13T13:38:26.642Z,275.63
2023-02-13T13:39:27.602Z,281.25
2023-02-13T13:40:28.264Z,275.63
2023-02-13T13:41:29.472Z,275.63
2023-02-13T13:42:30.035Z,281.25
2023-02-13T13:43:30.626Z,281.25
2023-02-13T13:44:31.148Z,281.25
2023-02-13T13:45:31.419Z,281.25
2023-02-13T13:46:31.397Z,286.88
2023-02-13T13:47:31.397Z,286.88